1NC4 weather

Bell Strip
Pollocksville, North Carolina, United States

Public forecast

Using degrees Fahrenheit for public forecast. Weather courtesy of forecast.io.

METAR (pilot weather report)

Closest report is Coastal Carolina Regional Airport, 11.5 nm (21.4 km) ENE. Retrieved 2019/06/20 13:54 UTC (29 minutes ago):

KEWN 201354Z 23006KT 10SM FEW019 28/24 A2978 RMK AO2 SLP084 T02830239

TAF (pilot weather forecast)

Closest forecast is Coastal Carolina Regional Airport, 11.5 nm (21.4 km) ENE. Retrieved 2019/06/20 12:42 UTC (2 hours ago):

TAF KEWN 201134Z 2012/2112 21007KT P6SM SCT008 BKN015 FM201300 23009G15KT P6SM FEW040 SCT250 FM201700 24015G17KT P6SM SCT040 FM202000 21012G25KT P6SM VCTS SCT025CB BKN050 FM210500 25009G15KT P6SM SCT250